Лось

Карта отелей и гостиниц, располагающихся рядом с аэропортом Лось :

Лось Ярославская область 56° 48' 54.6804" N, 38° 19' 32.0988" E
Код аэродрома ИКАО
UUQX
Код аэродрома RU
УУЯЬ
Координаты
N56.81519° E038.32558°
Превышение над уровнем моря
128
Основная полоса
07/25
Курс магнитный
069,4/249,4
Длина основной ВПП
30
Ширина основной ВПП
30
Покрытие основной ВПП
Твёрдое (железобетон)
Освещение ВПП
По запросу
Тип: 
Вертодром
Класс аэродрома: 
Принадлежность: 
ФСБ
Статус: 
Действующий
Сайт: 
E-mail аэродрома: 
centrles@list.ru, stroitel_700@mail.ru
Страна: 
Россия
Регион: 
Ярославская область
Город: 
Дополнительная информация: 
Владелец ПП: ОАО "Лесоохотничье хозяйство "Лось". Принимает ВС массой 16 т и менее. Имеет нормативную дневную и ночную опознавательную маркировку. Западнее ПП в 227 м расположена металлическая вышка сотовой связи высотой (100)м. АНППП зарегистрирован в МТУ ВТ ЦР ФАВТ 23 мая 2016 №ЦП3-451.

Найти трансфер

С помощью этой формы Вы можете найти трансфер из аэропорта Лось в город, аэропорт или вокзал:

Карта места

Javascript is required to view this map.

Погода в аэропортах:

Авиационная погода в Ровно

Регион: 
Погода METAR: 
UKLR 281400Z VRB01MPS 6000 -RA OVC026 04/04 Q0997 NOSIG
Время наблюдения
2021-11-28T14:00:00Z
Температура C
4.0
Точка росы
4.0
Направление ветра
0
Скорость ветра (узлы)
2
Метео видимость
3.73
Явления погоды
-RA
Условия полета
MVFR
Аэропорт подробнее: 

Авиационная погода в Бресте

Регион: 
Погода METAR: 
UMBB 281100Z 07003MPS 5000 BR OVC040 02/01 Q0999 NOSIG
Время наблюдения
2021-11-28T11:00:00Z
Температура C
2.0
Точка росы
1.0
Направление ветра
70
Скорость ветра (узлы)
6
Метео видимость
3.11
Явления погоды
BR
Условия полета
MVFR
Аэропорт подробнее: 

Авиационная погода в Борисполе

Регион: 
Погода METAR: 
UKBB 281300Z 12005MPS 0750 0500W R36R/1000D R36L/0900D PRFG OVC001 04/04 Q1003 TEMPO 0300 FG VV001
Время наблюдения
2021-11-28T13:00:00Z
Температура C
4.0
Точка росы
4.0
Направление ветра
120
Скорость ветра (узлы)
10
Метео видимость
0.47
Явления погоды
PRFG
Условия полета
LIFR
Аэропорт подробнее: 

Авиационная погода в Гродно

Регион: 
Погода METAR: 
UMMG 281400Z 12002MPS 4300 BR BKN008 02/01 Q1000 NOSIG
Время наблюдения
2021-11-28T14:00:00Z
Температура C
2.0
Точка росы
1.0
Направление ветра
120
Скорость ветра (узлы)
4
Метео видимость
2.67
Явления погоды
BR
Условия полета
IFR
Аэропорт подробнее: